Home > Products > Valid Products > TAF

000
FTUS45 KPUB 061721
TAFPUB
TAF
KPUB 061721Z 0618/0718 06010G20KT P6SM SCT040 BKN120
     FM062100 09012G22KT P6SM VCTS SCT040CB BKN090
     FM070200 10009KT P6SM SCT040 BKN090
     FM070600 12006KT P6SM BKN030
     FM071000 10005KT P6SM BKN025
     FM071700 12008KT P6SM SCT025 BKN100=



000
FTUS45 KPUB 061721
TAFALS
TAF
KALS 061721Z 0618/0718 VRB05KT P6SM SCT100 BKN120
     FM062000 12011KT P6SM VCTS SCT060CB BKN120
      TEMPO 0621/0623 VRB15G30KT P6SM BKN050CB
     FM070200 09012KT P6SM SCT050 BKN080
     FM070600 04006KT P6SM BKN050=



000
FTUS45 KPUB 061721
TAFCOS
TAF
KCOS 061721Z 0618/0718 01017KT P6SM VCSH SCT030 BKN080
     FM062000 03012G22KT P6SM VCSH SCT030 BKN050
      TEMPO 0620/0623 -TSRA BKN030CB
     FM070200 06008KT P6SM SCT030 BKN050
     FM070600 13006KT 5SM BR BKN020
     FM070900 14007KT 3SM BR BKN015
     FM071700 18008KT P6SM SCT015 BKN080=



000
FTUS45 KPUB 061721
TAFCOS
TAF
KCOS 061721Z 0618/0718 01017KT P6SM VCSH SCT030 BKN080
     FM062000 03012G22KT P6SM VCSH SCT030 BKN050
      TEMPO 0620/0623 -TSRA BKN030CB
     FM070200 06008KT P6SM SCT030 BKN050
     FM070600 13006KT 5SM BR BKN020
     FM070900 14007KT 3SM BR BKN015
     FM071700 18008KT P6SM SCT015 BKN080=



000
FTUS45 KPUB 061721
TAFALS
TAF
KALS 061721Z 0618/0718 VRB05KT P6SM SCT100 BKN120
     FM062000 12011KT P6SM VCTS SCT060CB BKN120
      TEMPO 0621/0623 VRB15G30KT P6SM BKN050CB
     FM070200 09012KT P6SM SCT050 BKN080
     FM070600 04006KT P6SM BKN050=



000
FTUS45 KPUB 061721
TAFPUB
TAF
KPUB 061721Z 0618/0718 06010G20KT P6SM SCT040 BKN120
     FM062100 09012G22KT P6SM VCTS SCT040CB BKN090
     FM070200 10009KT P6SM SCT040 BKN090
     FM070600 12006KT P6SM BKN030
     FM071000 10005KT P6SM BKN025
     FM071700 12008KT P6SM SCT025 BKN100=



000
FTUS45 KPUB 061455 AAA
TAFCOS
TAF AMD
KCOS 061455Z 0615/0712 35012G22KT P6SM SCT025 SCT100 BKN250
     FM061900 36012G22KT P6SM VCTS SCT050CB BKN130
     FM070300 03012KT P6SM SCT050 BKN090
     FM070600 13006KT 5SM BR BKN020=



000
FTUS45 KPUB 061455 AAA
TAFCOS
TAF AMD
KCOS 061455Z 0615/0712 35012G22KT P6SM SCT025 SCT100 BKN250
     FM061900 36012G22KT P6SM VCTS SCT050CB BKN130
     FM070300 03012KT P6SM SCT050 BKN090
     FM070600 13006KT 5SM BR BKN020=



000
FTUS45 KPUB 061122
TAFALS
TAF
KALS 061122Z 0612/0712 VRB05KT P6SM SCT100 BKN120
     FM062000 11011KT P6SM VCTS SCT070CB BKN120
     FM070400 09009KT P6SM SCT050 BKN080=



000
FTUS45 KPUB 061122
TAFPUB
TAF
KPUB 061122Z 0612/0712 VRB06KT P6SM VCSH BKN060
     FM061400 02015KT P6SM BKN080
     FM062000 05012G22KT P6SM VCTS SCT090CB BKN140
     FM070400 07009KT P6SM SCT080 BKN140
     FM070800 04006KT P6SM BKN040=



000
FTUS45 KPUB 061122
TAFALS
TAF
KALS 061122Z 0612/0712 VRB05KT P6SM SCT100 BKN120
     FM062000 11011KT P6SM VCTS SCT070CB BKN120
     FM070400 09009KT P6SM SCT050 BKN080=



000
FTUS45 KPUB 061122
TAFCOS
TAF
KCOS 061122Z 0612/0712 34011KT P6SM SCT040 BKN060
     FM061500 35012G22KT P6SM SCT080 BKN150
     FM061900 36012G22KT P6SM VCTS SCT070CB BKN130
     FM070300 03012KT P6SM SCT050 BKN090
     FM070600 13006KT 5SM BR BKN020=



000
FTUS45 KPUB 061122
TAFALS
TAF
KALS 061122Z 0612/0712 VRB05KT P6SM SCT100 BKN120
     FM062000 11011KT P6SM VCTS SCT070CB BKN120
     FM070400 09009KT P6SM SCT050 BKN080=



000
FTUS45 KPUB 061122
TAFCOS
TAF
KCOS 061122Z 0612/0712 34011KT P6SM SCT040 BKN060
     FM061500 35012G22KT P6SM SCT080 BKN150
     FM061900 36012G22KT P6SM VCTS SCT070CB BKN130
     FM070300 03012KT P6SM SCT050 BKN090
     FM070600 13006KT 5SM BR BKN020=



000
FTUS45 KPUB 061122
TAFPUB
TAF
KPUB 061122Z 0612/0712 VRB06KT P6SM VCSH BKN060
     FM061400 02015KT P6SM BKN080
     FM062000 05012G22KT P6SM VCTS SCT090CB BKN140
     FM070400 07009KT P6SM SCT080 BKN140
     FM070800 04006KT P6SM BKN040=



000
FTUS45 KPUB 061122
TAFCOS
TAF
KCOS 061122Z 0612/0712 34011KT P6SM SCT040 BKN060
     FM061500 35012G22KT P6SM SCT080 BKN150
     FM061900 36012G22KT P6SM VCTS SCT070CB BKN130
     FM070300 03012KT P6SM SCT050 BKN090
     FM070600 13006KT 5SM BR BKN020=



000
FTUS45 KPUB 061122
TAFPUB
TAF
KPUB 061122Z 0612/0712 VRB06KT P6SM VCSH BKN060
     FM061400 02015KT P6SM BKN080
     FM062000 05012G22KT P6SM VCTS SCT090CB BKN140
     FM070400 07009KT P6SM SCT080 BKN140
     FM070800 04006KT P6SM BKN040=



000
FTUS45 KPUB 061122
TAFALS
TAF
KALS 061122Z 0612/0712 VRB05KT P6SM SCT100 BKN120
     FM062000 11011KT P6SM VCTS SCT070CB BKN120
     FM070400 09009KT P6SM SCT050 BKN080=



000
FTUS45 KPUB 061122
TAFCOS
TAF
KCOS 061122Z 0612/0712 34011KT P6SM SCT040 BKN060
     FM061500 35012G22KT P6SM SCT080 BKN150
     FM061900 36012G22KT P6SM VCTS SCT070CB BKN130
     FM070300 03012KT P6SM SCT050 BKN090
     FM070600 13006KT 5SM BR BKN020=



000
FTUS45 KPUB 061122
TAFPUB
TAF
KPUB 061122Z 0612/0712 VRB06KT P6SM VCSH BKN060
     FM061400 02015KT P6SM BKN080
     FM062000 05012G22KT P6SM VCTS SCT090CB BKN140
     FM070400 07009KT P6SM SCT080 BKN140
     FM070800 04006KT P6SM BKN040=



000
FTUS45 KPUB 061044 AAC
TAFPUB
TAF AMD
KPUB 061044Z 0611/0706 VRB06KT P6SM VCSH SCT050 BKN100
     FM061400 02015KT P6SM SCT100 BKN150
     FM062000 05012G22KT P6SM VCTS SCT090CB BKN140
     FM070400 07009KT P6SM SCT080 BKN140=



000
FTUS45 KPUB 061002 AAB
TAFPUB
TAF AMD
KPUB 061002Z 0610/0706 35008KT P6SM VCSH SCT050 BKN100
     FM061500 02015KT P6SM SCT100 BKN150
     FM062000 05012G22KT P6SM VCTS SCT090CB BKN140
     FM070400 07009KT P6SM SCT080 BKN140=



000
FTUS45 KPUB 061002 AAB
TAFPUB
TAF AMD
KPUB 061002Z 0610/0706 35008KT P6SM VCSH SCT050 BKN100
     FM061500 02015KT P6SM SCT100 BKN150
     FM062000 05012G22KT P6SM VCTS SCT090CB BKN140
     FM070400 07009KT P6SM SCT080 BKN140=



000
FTUS45 KPUB 061002 AAB
TAFPUB
TAF AMD
KPUB 061002Z 0610/0706 35008KT P6SM VCSH SCT050 BKN100
     FM061500 02015KT P6SM SCT100 BKN150
     FM062000 05012G22KT P6SM VCTS SCT090CB BKN140
     FM070400 07009KT P6SM SCT080 BKN140=



000
FTUS45 KPUB 060657 AAA
TAFPUB
TAF AMD
KPUB 060657Z 0607/0706 04012KT P6SM SCT090 BKN120 OVC200
     FM061000 VRB06KT P6SM SCT100 BKN150
     FM061500 02015KT P6SM SCT100 BKN150
     FM062000 05012G22KT P6SM VCTS SCT090CB BKN140
     FM070400 07009KT P6SM SCT080 BKN140=



000
FTUS45 KPUB 060657 AAA
TAFPUB
TAF AMD
KPUB 060657Z 0607/0706 04012KT P6SM SCT090 BKN120 OVC200
     FM061000 VRB06KT P6SM SCT100 BKN150
     FM061500 02015KT P6SM SCT100 BKN150
     FM062000 05012G22KT P6SM VCTS SCT090CB BKN140
     FM070400 07009KT P6SM SCT080 BKN140=



000
FTUS45 KPUB 060546 CCA
TAFPUB
TAF COR
KPUB 060546Z 0606/0706 06011KT P6SM SCT090 BKN120 OVC200
     FM061000 VRB06KT P6SM SCT100 BKN150
     FM061500 02015KT P6SM SCT100 BKN150
     FM062000 05012G22KT P6SM VCTS SCT090CB BKN140
     FM070400 07009KT P6SM SCT080 BKN140=



000
FTUS45 KPUB 060546 CCA
TAFPUB
TAF COR
KPUB 060546Z 0606/0706 06011KT P6SM SCT090 BKN120 OVC200
     FM061000 VRB06KT P6SM SCT100 BKN150
     FM061500 02015KT P6SM SCT100 BKN150
     FM062000 05012G22KT P6SM VCTS SCT090CB BKN140
     FM070400 07009KT P6SM SCT080 BKN140=



000
FTUS45 KPUB 060542
TAFPUB
TAF
KPUB 060542Z 0606/0706 07013KT P6SM SCT090 BKN120 OVC200
     FM061000 VRB06KT P6SM SCT100 BKN150
     FM061500 02015KT P6SM SCT100 BKN150
     FM062000 05012G22KT P6SM VCTS SCT090CB BKN140
     FM070400 07009KT P6SM SCT080 BKN140=



000
FTUS45 KPUB 060542
TAFALS
TAF
KALS 060542Z 0606/0706 VRB06KT P6SM VCSH SCT080 BKN120
     FM060900 VRB05KT P6SM SCT100 BKN150
     FM062000 13011KT P6SM VCTS SCT070CB BKN120
     FM070400 09009KT P6SM SCT050 BKN080=



000
FTUS45 KPUB 060542
TAFCOS
TAF
KCOS 060542Z 0606/0706 02015KT P6SM VCSH BKN090 OVC150
     FM061000 35011KT P6SM SCT020 BKN150
     FM061500 35012G22KT P6SM SCT080 BKN150
     FM061900 36012G22KT P6SM VCTS SCT070CB BKN130
     FM070300 03012KT P6SM SCT050 BKN090=



000
FTUS45 KPUB 060542
TAFCOS
TAF
KCOS 060542Z 0606/0706 02015KT P6SM VCSH BKN090 OVC150
     FM061000 35011KT P6SM SCT020 BKN150
     FM061500 35012G22KT P6SM SCT080 BKN150
     FM061900 36012G22KT P6SM VCTS SCT070CB BKN130
     FM070300 03012KT P6SM SCT050 BKN090=



000
FTUS45 KPUB 060542
TAFALS
TAF
KALS 060542Z 0606/0706 VRB06KT P6SM VCSH SCT080 BKN120
     FM060900 VRB05KT P6SM SCT100 BKN150
     FM062000 13011KT P6SM VCTS SCT070CB BKN120
     FM070400 09009KT P6SM SCT050 BKN080=



000
FTUS45 KPUB 060542
TAFPUB
TAF
KPUB 060542Z 0606/0706 07013KT P6SM SCT090 BKN120 OVC200
     FM061000 VRB06KT P6SM SCT100 BKN150
     FM061500 02015KT P6SM SCT100 BKN150
     FM062000 05012G22KT P6SM VCTS SCT090CB BKN140
     FM070400 07009KT P6SM SCT080 BKN140=



000
FTUS45 KPUB 060402 AAC
TAFCOS
TAF AMD
KCOS 060402Z 0604/0624 04010KT P6SM OVC100
     FM061200 36012G22KT P6SM SCT100 BKN200
     FM062000 05014KT P6SM VCTS SCT080CB BKN140=



000
FTUS45 KPUB 060402 AAC
TAFCOS
TAF AMD
KCOS 060402Z 0604/0624 04010KT P6SM OVC100
     FM061200 36012G22KT P6SM SCT100 BKN200
     FM062000 05014KT P6SM VCTS SCT080CB BKN140=



000
FTUS45 KPUB 060402 AAC
TAFCOS
TAF AMD
KCOS 060402Z 0604/0624 04010KT P6SM OVC100
     FM061200 36012G22KT P6SM SCT100 BKN200
     FM062000 05014KT P6SM VCTS SCT080CB BKN140=



000
FTUS45 KPUB 060258 AAE
TAFPUB
TAF AMD
KPUB 060258Z 0603/0624 36013KT P6SM VCSH BKN110 OVC200
     FM060600 36012KT P6SM BKN110 OVC200
     FM061500 02014KT P6SM SCT110 BKN200
     FM062200 09010KT P6SM VCTS SCT100CB BKN200=



000
FTUS45 KPUB 060258 AAE
TAFPUB
TAF AMD
KPUB 060258Z 0603/0624 36013KT P6SM VCSH BKN110 OVC200
     FM060600 36012KT P6SM BKN110 OVC200
     FM061500 02014KT P6SM SCT110 BKN200
     FM062200 09010KT P6SM VCTS SCT100CB BKN200=



000
FTUS45 KPUB 060213 AAD
TAFPUB
TAF AMD
KPUB 060213Z 0602/0624 36015G25KT P6SM VCSH BKN110 OVC200
     FM060400 36012G22KT P6SM BKN110 OVC200
     FM061500 02014KT P6SM SCT110 BKN200
     FM062200 09010KT P6SM VCTS SCT100CB BKN200=



000
FTUS45 KPUB 060213 AAD
TAFPUB
TAF AMD
KPUB 060213Z 0602/0624 36015G25KT P6SM VCSH BKN110 OVC200
     FM060400 36012G22KT P6SM BKN110 OVC200
     FM061500 02014KT P6SM SCT110 BKN200
     FM062200 09010KT P6SM VCTS SCT100CB BKN200=



000
FTUS45 KPUB 060147 AAC
TAFPUB
TAF AMD
KPUB 060147Z 0602/0624 36015G25KT P6SM BKN110 OVC200
     FM061500 02014KT P6SM SCT110 BKN200
     FM062200 09010KT P6SM VCTS SCT100CB BKN200=



000
FTUS45 KPUB 060147 AAC
TAFPUB
TAF AMD
KPUB 060147Z 0602/0624 36015G25KT P6SM BKN110 OVC200
     FM061500 02014KT P6SM SCT110 BKN200
     FM062200 09010KT P6SM VCTS SCT100CB BKN200=



000
FTUS45 KPUB 060147 AAC
TAFPUB
TAF AMD
KPUB 060147Z 0602/0624 36015G25KT P6SM BKN110 OVC200
     FM061500 02014KT P6SM SCT110 BKN200
     FM062200 09010KT P6SM VCTS SCT100CB BKN200=



000
FTUS45 KPUB 060147 AAC
TAFPUB
TAF AMD
KPUB 060147Z 0602/0624 36015G25KT P6SM BKN110 OVC200
     FM061500 02014KT P6SM SCT110 BKN200
     FM062200 09010KT P6SM VCTS SCT100CB BKN200=



000
FTUS45 KPUB 060126 AAB
TAFCOS
TAF AMD
KCOS 060126Z 0601/0624 36015KT P6SM SCT100 BKN150
     FM060600 36012G22KT P6SM BKN100
     FM061200 36012G22KT P6SM SCT100 BKN200
     FM062000 05014KT P6SM VCTS SCT080CB BKN140=



000
FTUS45 KPUB 060126 AAB
TAFCOS
TAF AMD
KCOS 060126Z 0601/0624 36015KT P6SM SCT100 BKN150
     FM060600 36012G22KT P6SM BKN100
     FM061200 36012G22KT P6SM SCT100 BKN200
     FM062000 05014KT P6SM VCTS SCT080CB BKN140=



000
FTUS45 KPUB 060045 AAA
TAFALS
TAF AMD
KALS 060045Z 0601/0624 34011KT P6SM VCSH SCT080 BKN150
     FM060400 VRB06KT P6SM SCT090 BKN110
     FM060600 VRB04KT P6SM SCT110 BKN150
     FM062100 11010KT P6SM SCT080 BKN130=



000
FTUS45 KPUB 060045 AAA
TAFALS
TAF AMD
KALS 060045Z 0601/0624 34011KT P6SM VCSH SCT080 BKN150
     FM060400 VRB06KT P6SM SCT090 BKN110
     FM060600 VRB04KT P6SM SCT110 BKN150
     FM062100 11010KT P6SM SCT080 BKN130=



000
FTUS45 KPUB 060013 CCA
TAFCOS
TAF COR
KCOS 060013Z 0600/0624 34012G22KT P6SM VCTS SCT090CB OVC200
     FM060130 36015G25KT P6SM SCT090 OVC200
     FM060600 36012G22KT P6SM BKN100
     FM061200 36012G22KT P6SM SCT100 BKN200
     FM062000 05014KT P6SM VCTS SCT080CB BKN140=



000
FTUS45 KPUB 060013 CCA
TAFCOS
TAF COR
KCOS 060013Z 0600/0624 34012G22KT P6SM VCTS SCT090CB OVC200
     FM060130 36015G25KT P6SM SCT090 OVC200
     FM060600 36012G22KT P6SM BKN100
     FM061200 36012G22KT P6SM SCT100 BKN200
     FM062000 05014KT P6SM VCTS SCT080CB BKN140=



000
FTUS45 KPUB 060009 AAA
TAFCOS
TAF AMD
KCOS 060009Z 0600/0624 34012G22KT P6SM VCSH SCT090 OVC200
     FM060130 36015G25KT P6SM SCT090 OVC200
     FM060600 36012G22KT P6SM BKN100
     FM061200 36012G22KT P6SM SCT100 BKN200
     FM062000 05014KT P6SM VCTS SCT080CB BKN140=



000
FTUS45 KPUB 060009 AAA
TAFCOS
TAF AMD
KCOS 060009Z 0600/0624 34012G22KT P6SM VCSH SCT090 OVC200
     FM060130 36015G25KT P6SM SCT090 OVC200
     FM060600 36012G22KT P6SM BKN100
     FM061200 36012G22KT P6SM SCT100 BKN200
     FM062000 05014KT P6SM VCTS SCT080CB BKN140=



000
FTUS45 KPUB 052339
TAFPUB
TAF
KPUB 052339Z 0600/0624 30012G22KT P6SM SCT110 OVC200
     FM060300 36015G25KT P6SM SCT110 BKN150
     FM060700 36012G22KT P6SM BKN110
     FM061500 02014KT P6SM SCT110 BKN200
     FM062200 09010KT P6SM VCTS SCT100CB BKN200=



000
FTUS45 KPUB 052339
TAFCOS
TAF
KCOS 052339Z 0600/0624 20012KT P6SM VCSH SCT090 OVC200
     FM060130 36015G25KT P6SM SCT090 OVC200
     FM060600 36012G22KT P6SM BKN100
     FM061200 36012G22KT P6SM SCT100 BKN200
     FM062000 05014KT P6SM VCTS SCT080CB BKN140=



000
FTUS45 KPUB 052339
TAFALS
TAF
KALS 052339Z 0600/0624 01013KT P6SM VCSH SCT080 BKN110
     FM060300 VRB06KT P6SM SCT090 BKN110
     FM060600 VRB04KT P6SM SCT110 BKN150
     FM062100 11010KT P6SM SCT080 BKN130=



000
FTUS45 KPUB 052339
TAFPUB
TAF
KPUB 052339Z 0600/0624 30012G22KT P6SM SCT110 OVC200
     FM060300 36015G25KT P6SM SCT110 BKN150
     FM060700 36012G22KT P6SM BKN110
     FM061500 02014KT P6SM SCT110 BKN200
     FM062200 09010KT P6SM VCTS SCT100CB BKN200=



000
FTUS45 KPUB 052339
TAFCOS
TAF
KCOS 052339Z 0600/0624 20012KT P6SM VCSH SCT090 OVC200
     FM060130 36015G25KT P6SM SCT090 OVC200
     FM060600 36012G22KT P6SM BKN100
     FM061200 36012G22KT P6SM SCT100 BKN200
     FM062000 05014KT P6SM VCTS SCT080CB BKN140=



000
FTUS45 KPUB 052339
TAFALS
TAF
KALS 052339Z 0600/0624 01013KT P6SM VCSH SCT080 BKN110
     FM060300 VRB06KT P6SM SCT090 BKN110
     FM060600 VRB04KT P6SM SCT110 BKN150
     FM062100 11010KT P6SM SCT080 BKN130=



000
FTUS45 KPUB 052339
TAFPUB
TAF
KPUB 052339Z 0600/0624 30012G22KT P6SM SCT110 OVC200
     FM060300 36015G25KT P6SM SCT110 BKN150
     FM060700 36012G22KT P6SM BKN110
     FM061500 02014KT P6SM SCT110 BKN200
     FM062200 09010KT P6SM VCTS SCT100CB BKN200=



000
FTUS45 KPUB 052339
TAFALS
TAF
KALS 052339Z 0600/0624 01013KT P6SM VCSH SCT080 BKN110
     FM060300 VRB06KT P6SM SCT090 BKN110
     FM060600 VRB04KT P6SM SCT110 BKN150
     FM062100 11010KT P6SM SCT080 BKN130=



000
FTUS45 KPUB 052339
TAFPUB
TAF
KPUB 052339Z 0600/0624 30012G22KT P6SM SCT110 OVC200
     FM060300 36015G25KT P6SM SCT110 BKN150
     FM060700 36012G22KT P6SM BKN110
     FM061500 02014KT P6SM SCT110 BKN200
     FM062200 09010KT P6SM VCTS SCT100CB BKN200=



000
FTUS45 KPUB 052339
TAFALS
TAF
KALS 052339Z 0600/0624 01013KT P6SM VCSH SCT080 BKN110
     FM060300 VRB06KT P6SM SCT090 BKN110
     FM060600 VRB04KT P6SM SCT110 BKN150
     FM062100 11010KT P6SM SCT080 BKN130=



000
FTUS45 KPUB 052339
TAFCOS
TAF
KCOS 052339Z 0600/0624 20012KT P6SM VCSH SCT090 OVC200
     FM060130 36015G25KT P6SM SCT090 OVC200
     FM060600 36012G22KT P6SM BKN100
     FM061200 36012G22KT P6SM SCT100 BKN200
     FM062000 05014KT P6SM VCTS SCT080CB BKN140=



000
FTUS45 KPUB 052339
TAFCOS
TAF
KCOS 052339Z 0600/0624 20012KT P6SM VCSH SCT090 OVC200
     FM060130 36015G25KT P6SM SCT090 OVC200
     FM060600 36012G22KT P6SM BKN100
     FM061200 36012G22KT P6SM SCT100 BKN200
     FM062000 05014KT P6SM VCTS SCT080CB BKN140=



000
FTUS45 KPUB 052319 AAD
TAFPUB
TAF AMD
KPUB 052319Z 0523/0618 27010G20KT P6SM SCT110 OVC200
     FM060300 33009KT P6SM SCT080 BKN120
     FM060900 02015G25KT P6SM SCT050 BKN100
     FM061400 05013G23KT P6SM SCT030 BKN040=



000
FTUS45 KPUB 052319 AAD
TAFPUB
TAF AMD
KPUB 052319Z 0523/0618 27010G20KT P6SM SCT110 OVC200
     FM060300 33009KT P6SM SCT080 BKN120
     FM060900 02015G25KT P6SM SCT050 BKN100
     FM061400 05013G23KT P6SM SCT030 BKN040=



000
FTUS45 KPUB 052303 AAC
TAFCOS
TAF AMD
KCOS 052303Z 0523/0618 20007KT P6SM VCSH SCT090 BKN200
     FM060300 36014KT P6SM SCT080 BKN100
     FM060800 36015G25KT P6SM BKN070 BKN100
     FM061300 02020G30KT P6SM BKN020 BKN050=



000
FTUS45 KPUB 052303 AAC
TAFCOS
TAF AMD
KCOS 052303Z 0523/0618 20007KT P6SM VCSH SCT090 BKN200
     FM060300 36014KT P6SM SCT080 BKN100
     FM060800 36015G25KT P6SM BKN070 BKN100
     FM061300 02020G30KT P6SM BKN020 BKN050=



000
FTUS45 KPUB 052303 AAC
TAFCOS
TAF AMD
KCOS 052303Z 0523/0618 20007KT P6SM VCSH SCT090 BKN200
     FM060300 36014KT P6SM SCT080 BKN100
     FM060800 36015G25KT P6SM BKN070 BKN100
     FM061300 02020G30KT P6SM BKN020 BKN050=



000
FTUS45 KPUB 052303 AAC
TAFCOS
TAF AMD
KCOS 052303Z 0523/0618 20007KT P6SM VCSH SCT090 BKN200
     FM060300 36014KT P6SM SCT080 BKN100
     FM060800 36015G25KT P6SM BKN070 BKN100
     FM061300 02020G30KT P6SM BKN020 BKN050=



000
FTUS45 KPUB 052300 AAB
TAFALS
TAF AMD
KALS 052300Z 0523/0618 01012G22KT P6SM VCTS SCT070CB BKN120
     FM060300 33005KT P6SM SCT090 BKN120
     FM060600 VRB05KT P6SM BKN140=



000
FTUS45 KPUB 052300 AAB
TAFALS
TAF AMD
KALS 052300Z 0523/0618 01012G22KT P6SM VCTS SCT070CB BKN120
     FM060300 33005KT P6SM SCT090 BKN120
     FM060600 VRB05KT P6SM BKN140=



000
FTUS45 KPUB 052231 AAB
TAFPUB
TAF AMD
KPUB 052231Z 0523/0618 VRB06KT P6SM SCT100 OVC200
     FM060300 33009KT P6SM SCT080 BKN120
     FM060900 02015G25KT P6SM SCT050 BKN100
     FM061400 05013G23KT P6SM SCT030 BKN040=



000
FTUS45 KPUB 052231 AAB
TAFPUB
TAF AMD
KPUB 052231Z 0523/0618 VRB06KT P6SM SCT100 OVC200
     FM060300 33009KT P6SM SCT080 BKN120
     FM060900 02015G25KT P6SM SCT050 BKN100
     FM061400 05013G23KT P6SM SCT030 BKN040=



000
FTUS45 KPUB 052037 AAA
TAFALS
TAF AMD
KALS 052037Z 0521/0618 16010KT P6SM VCTS SCT070CB BKN120
     FM052300 30013KT P6SM VCTS SCT070CB BKN120
     FM060300 33005KT P6SM SCT090 BKN120
     FM060600 VRB05KT P6SM BKN140=



000
FTUS45 KPUB 052037 AAA
TAFALS
TAF AMD
KALS 052037Z 0521/0618 16010KT P6SM VCTS SCT070CB BKN120
     FM052300 30013KT P6SM VCTS SCT070CB BKN120
     FM060300 33005KT P6SM SCT090 BKN120
     FM060600 VRB05KT P6SM BKN140=



000
FTUS45 KPUB 052008 AAB
TAFCOS
TAF AMD
KCOS 052008Z 0520/0618 20005KT P6SM FEW090 SCT180 BKN250
      TEMPO 0521/0523 VRB20G35KT -TSRA BKN080CB
     FM052300 34013KT P6SM VCTS SCT080CB BKN100
     FM060300 36014KT P6SM SCT080 BKN100
     FM060800 36015G25KT P6SM BKN070 BKN100
     FM061300 02020G30KT P6SM BKN020 BKN050=



000
FTUS45 KPUB 052008 AAB
TAFCOS
TAF AMD
KCOS 052008Z 0520/0618 20005KT P6SM FEW090 SCT180 BKN250
      TEMPO 0521/0523 VRB20G35KT -TSRA BKN080CB
     FM052300 34013KT P6SM VCTS SCT080CB BKN100
     FM060300 36014KT P6SM SCT080 BKN100
     FM060800 36015G25KT P6SM BKN070 BKN100
     FM061300 02020G30KT P6SM BKN020 BKN050=



000
FTUS45 KPUB 052008 AAB
TAFCOS
TAF AMD
KCOS 052008Z 0520/0618 20005KT P6SM FEW090 SCT180 BKN250
      TEMPO 0521/0523 VRB20G35KT -TSRA BKN080CB
     FM052300 34013KT P6SM VCTS SCT080CB BKN100
     FM060300 36014KT P6SM SCT080 BKN100
     FM060800 36015G25KT P6SM BKN070 BKN100
     FM061300 02020G30KT P6SM BKN020 BKN050=



000
FTUS45 KPUB 051913 AAA
TAFCOS
TAF AMD
KCOS 051913Z 0519/0618 15005KT P6SM FEW090 SCT200 OVC250
     FM052000 19010G20KT P6SM VCTS SCT080CB BKN140
      TEMPO 0520/0523 VRB20G35KT -TSRA BKN080CB
     FM052300 34013KT P6SM VCTS SCT080CB BKN100
     FM060300 36014KT P6SM SCT080 BKN100
     FM060800 36015G25KT P6SM BKN070 BKN100
     FM061300 02020G30KT P6SM BKN020 BKN050=



000
FTUS45 KPUB 051913 AAA
TAFCOS
TAF AMD
KCOS 051913Z 0519/0618 15005KT P6SM FEW090 SCT200 OVC250
     FM052000 19010G20KT P6SM VCTS SCT080CB BKN140
      TEMPO 0520/0523 VRB20G35KT -TSRA BKN080CB
     FM052300 34013KT P6SM VCTS SCT080CB BKN100
     FM060300 36014KT P6SM SCT080 BKN100
     FM060800 36015G25KT P6SM BKN070 BKN100
     FM061300 02020G30KT P6SM BKN020 BKN050=



000
FTUS45 KPUB 051720
TAFALS
TAF
KALS 051720Z 0518/0618 20009KT P6SM VCSH SCT080 BKN120
     FM051900 20011KT P6SM VCTS SCT070CB BKN120
      TEMPO 0519/0523 VRB15G25KT -TSRA BKN060CB
     FM052300 30013KT P6SM VCTS SCT070CB BKN120
     FM060300 33005KT P6SM SCT090 BKN120
     FM060600 VRB05KT P6SM BKN140=



000
FTUS45 KPUB 051720
TAFALS
TAF
KALS 051720Z 0518/0618 20009KT P6SM VCSH SCT080 BKN120
     FM051900 20011KT P6SM VCTS SCT070CB BKN120
      TEMPO 0519/0523 VRB15G25KT -TSRA BKN060CB
     FM052300 30013KT P6SM VCTS SCT070CB BKN120
     FM060300 33005KT P6SM SCT090 BKN120
     FM060600 VRB05KT P6SM BKN140=



000
FTUS45 KPUB 051720
TAFCOS
TAF
KCOS 051720Z 0518/0618 17009KT P6SM SCT110 BKN200
     FM052000 19010G20KT P6SM VCTS SCT080CB BKN140
      TEMPO 0520/0523 VRB20G35KT -TSRA BKN080CB
     FM052300 34013KT P6SM VCTS SCT080CB BKN100
     FM060300 36014KT P6SM SCT080 BKN100
     FM060800 36015G25KT P6SM BKN070 BKN100
     FM061300 02020G30KT P6SM BKN020 BKN050=



000
FTUS45 KPUB 051720
TAFPUB
TAF
KPUB 051720Z 0518/0618 21010KT P6SM SCT120 BKN200
     FM052200 19010G20KT P6SM VCTS SCT080CB BKN140
      TEMPO 0522/0601 VRB20G35KT -TSRA BKN080CB
     FM060300 33009KT P6SM SCT080 BKN120
     FM060900 02015G25KT P6SM SCT050 BKN100
     FM061400 05013G23KT P6SM SCT030 BKN040=



000
FTUS45 KPUB 051720
TAFPUB
TAF
KPUB 051720Z 0518/0618 21010KT P6SM SCT120 BKN200
     FM052200 19010G20KT P6SM VCTS SCT080CB BKN140
      TEMPO 0522/0601 VRB20G35KT -TSRA BKN080CB
     FM060300 33009KT P6SM SCT080 BKN120
     FM060900 02015G25KT P6SM SCT050 BKN100
     FM061400 05013G23KT P6SM SCT030 BKN040=



000
FTUS45 KPUB 051720
TAFCOS
TAF
KCOS 051720Z 0518/0618 17009KT P6SM SCT110 BKN200
     FM052000 19010G20KT P6SM VCTS SCT080CB BKN140
      TEMPO 0520/0523 VRB20G35KT -TSRA BKN080CB
     FM052300 34013KT P6SM VCTS SCT080CB BKN100
     FM060300 36014KT P6SM SCT080 BKN100
     FM060800 36015G25KT P6SM BKN070 BKN100
     FM061300 02020G30KT P6SM BKN020 BKN050=



000
FTUS45 KPUB 051720
TAFPUB
TAF
KPUB 051720Z 0518/0618 21010KT P6SM SCT120 BKN200
     FM052200 19010G20KT P6SM VCTS SCT080CB BKN140
      TEMPO 0522/0601 VRB20G35KT -TSRA BKN080CB
     FM060300 33009KT P6SM SCT080 BKN120
     FM060900 02015G25KT P6SM SCT050 BKN100
     FM061400 05013G23KT P6SM SCT030 BKN040=



000
FTUS45 KPUB 051720
TAFCOS
TAF
KCOS 051720Z 0518/0618 17009KT P6SM SCT110 BKN200
     FM052000 19010G20KT P6SM VCTS SCT080CB BKN140
      TEMPO 0520/0523 VRB20G35KT -TSRA BKN080CB
     FM052300 34013KT P6SM VCTS SCT080CB BKN100
     FM060300 36014KT P6SM SCT080 BKN100
     FM060800 36015G25KT P6SM BKN070 BKN100
     FM061300 02020G30KT P6SM BKN020 BKN050=



000
FTUS45 KPUB 051720
TAFPUB
TAF
KPUB 051720Z 0518/0618 21010KT P6SM SCT120 BKN200
     FM052200 19010G20KT P6SM VCTS SCT080CB BKN140
      TEMPO 0522/0601 VRB20G35KT -TSRA BKN080CB
     FM060300 33009KT P6SM SCT080 BKN120
     FM060900 02015G25KT P6SM SCT050 BKN100
     FM061400 05013G23KT P6SM SCT030 BKN040=



000
FTUS45 KPUB 051720
TAFCOS
TAF
KCOS 051720Z 0518/0618 17009KT P6SM SCT110 BKN200
     FM052000 19010G20KT P6SM VCTS SCT080CB BKN140
      TEMPO 0520/0523 VRB20G35KT -TSRA BKN080CB
     FM052300 34013KT P6SM VCTS SCT080CB BKN100
     FM060300 36014KT P6SM SCT080 BKN100
     FM060800 36015G25KT P6SM BKN070 BKN100
     FM061300 02020G30KT P6SM BKN020 BKN050=



000
FTUS45 KPUB 051139
TAFCOS
TAF
KCOS 051139Z 0512/0612 36008KT P6SM SCT110 BKN200
     FM051700 17009KT P6SM SCT110 BKN200
     FM052000 20012G22KT P6SM VCTS SCT080CB BKN120
     FM052200 30012KT P6SM VCTS SCT060CB BKN100
      TEMPO 0522/0602 VRB20G30KT 5SM -TSRA BKN040CB
     FM060200 36014KT P6SM VCTS SCT060CB BKN120
     FM060400 35012KT P6SM SCT050 BKN200
     FM061000 35015G25KT P6SM SCT030 BKN050=



000
FTUS45 KPUB 051139
TAFPUB
TAF
KPUB 051139Z 0512/0612 VRB06KT P6SM SCT120 BKN200
     FM051700 21010KT P6SM SCT120 BKN200
     FM052000 23012G22KT P6SM SCT080 BKN140
     FM052200 30015G25KT P6SM VCTS SCT080CB BKN120
      TEMPO 0522/0602 VRB20G32KT 5SM -TSRA BKN060CB
     FM060200 33008KT P6SM VCTS SCT080CB BKN120
     FM060400 33008KT P6SM SCT080 BKN120
     FM060900 35015G25KT P6SM SCT030 BKN050=



000
FTUS45 KPUB 051139
TAFALS
TAF
KALS 051139Z 0512/0612 VRB05KT P6SM BKN150
     FM051700 20009KT P6SM VCSH SCT080 BKN120
     FM051900 22012G22KT P6SM VCTS SCT070CB BKN100
     FM060300 21008KT P6SM SCT100 BKN150
     FM060500 16007KT P6SM SCT100 BKN150=



000
FTUS45 KPUB 051139
TAFALS
TAF
KALS 051139Z 0512/0612 VRB05KT P6SM BKN150
     FM051700 20009KT P6SM VCSH SCT080 BKN120
     FM051900 22012G22KT P6SM VCTS SCT070CB BKN100
     FM060300 21008KT P6SM SCT100 BKN150
     FM060500 16007KT P6SM SCT100 BKN150=



000
FTUS45 KPUB 051139
TAFCOS
TAF
KCOS 051139Z 0512/0612 36008KT P6SM SCT110 BKN200
     FM051700 17009KT P6SM SCT110 BKN200
     FM052000 20012G22KT P6SM VCTS SCT080CB BKN120
     FM052200 30012KT P6SM VCTS SCT060CB BKN100
      TEMPO 0522/0602 VRB20G30KT 5SM -TSRA BKN040CB
     FM060200 36014KT P6SM VCTS SCT060CB BKN120
     FM060400 35012KT P6SM SCT050 BKN200
     FM061000 35015G25KT P6SM SCT030 BKN050=



000
FTUS45 KPUB 051139
TAFPUB
TAF
KPUB 051139Z 0512/0612 VRB06KT P6SM SCT120 BKN200
     FM051700 21010KT P6SM SCT120 BKN200
     FM052000 23012G22KT P6SM SCT080 BKN140
     FM052200 30015G25KT P6SM VCTS SCT080CB BKN120
      TEMPO 0522/0602 VRB20G32KT 5SM -TSRA BKN060CB
     FM060200 33008KT P6SM VCTS SCT080CB BKN120
     FM060400 33008KT P6SM SCT080 BKN120
     FM060900 35015G25KT P6SM SCT030 BKN050=



000
FTUS45 KPUB 051139
TAFCOS
TAF
KCOS 051139Z 0512/0612 36008KT P6SM SCT110 BKN200
     FM051700 17009KT P6SM SCT110 BKN200
     FM052000 20012G22KT P6SM VCTS SCT080CB BKN120
     FM052200 30012KT P6SM VCTS SCT060CB BKN100
      TEMPO 0522/0602 VRB20G30KT 5SM -TSRA BKN040CB
     FM060200 36014KT P6SM VCTS SCT060CB BKN120
     FM060400 35012KT P6SM SCT050 BKN200
     FM061000 35015G25KT P6SM SCT030 BKN050=



000
FTUS45 KPUB 051139
TAFALS
TAF
KALS 051139Z 0512/0612 VRB05KT P6SM BKN150
     FM051700 20009KT P6SM VCSH SCT080 BKN120
     FM051900 22012G22KT P6SM VCTS SCT070CB BKN100
     FM060300 21008KT P6SM SCT100 BKN150
     FM060500 16007KT P6SM SCT100 BKN150=



000
FTUS45 KPUB 051139
TAFALS
TAF
KALS 051139Z 0512/0612 VRB05KT P6SM BKN150
     FM051700 20009KT P6SM VCSH SCT080 BKN120
     FM051900 22012G22KT P6SM VCTS SCT070CB BKN100
     FM060300 21008KT P6SM SCT100 BKN150
     FM060500 16007KT P6SM SCT100 BKN150=



000
FTUS45 KPUB 051139
TAFCOS
TAF
KCOS 051139Z 0512/0612 36008KT P6SM SCT110 BKN200
     FM051700 17009KT P6SM SCT110 BKN200
     FM052000 20012G22KT P6SM VCTS SCT080CB BKN120
     FM052200 30012KT P6SM VCTS SCT060CB BKN100
      TEMPO 0522/0602 VRB20G30KT 5SM -TSRA BKN040CB
     FM060200 36014KT P6SM VCTS SCT060CB BKN120
     FM060400 35012KT P6SM SCT050 BKN200
     FM061000 35015G25KT P6SM SCT030 BKN050=



000
FTUS45 KPUB 051139
TAFPUB
TAF
KPUB 051139Z 0512/0612 VRB06KT P6SM SCT120 BKN200
     FM051700 21010KT P6SM SCT120 BKN200
     FM052000 23012G22KT P6SM SCT080 BKN140
     FM052200 30015G25KT P6SM VCTS SCT080CB BKN120
      TEMPO 0522/0602 VRB20G32KT 5SM -TSRA BKN060CB
     FM060200 33008KT P6SM VCTS SCT080CB BKN120
     FM060400 33008KT P6SM SCT080 BKN120
     FM060900 35015G25KT P6SM SCT030 BKN050=



000
FTUS45 KPUB 051139
TAFPUB
TAF
KPUB 051139Z 0512/0612 VRB06KT P6SM SCT120 BKN200
     FM051700 21010KT P6SM SCT120 BKN200
     FM052000 23012G22KT P6SM SCT080 BKN140
     FM052200 30015G25KT P6SM VCTS SCT080CB BKN120
      TEMPO 0522/0602 VRB20G32KT 5SM -TSRA BKN060CB
     FM060200 33008KT P6SM VCTS SCT080CB BKN120
     FM060400 33008KT P6SM SCT080 BKN120
     FM060900 35015G25KT P6SM SCT030 BKN050=



000
FTUS45 KPUB 050551 CCA
TAFPUB
TAF COR
KPUB 050551Z 0506/0606 VRB06KT P6SM SCT120 BKN200
     FM050700 04011KT P6SM SCT120 BKN200
     FM051000 VRB06KT P6SM SCT120 BKN200
     FM051700 21010KT P6SM SCT120 BKN200
     FM052200 23012G22KT P6SM VCTS SCT100CB BKN140
     FM060300 29011KT P6SM BKN100=



000
FTUS45 KPUB 050551 CCA
TAFPUB
TAF COR
KPUB 050551Z 0506/0606 VRB06KT P6SM SCT120 BKN200
     FM050700 04011KT P6SM SCT120 BKN200
     FM051000 VRB06KT P6SM SCT120 BKN200
     FM051700 21010KT P6SM SCT120 BKN200
     FM052200 23012G22KT P6SM VCTS SCT100CB BKN140
     FM060300 29011KT P6SM BKN100=



000
FTUS45 KPUB 050538
TAFPUB
TAF
KPUB 050538Z 0506/0606 VRB06KT P6SM SCT120 BKN200
     FM050645 04010G20KT P6SM SCT120 BKN200
     FM050900 VRB06KT P6SM SCT120 BKN200
     FM051700 21010KT P6SM SCT120 BKN200
     FM052200 23012G22KT P6SM VCTS SCT100CB BKN140
     FM060300 29011KT P6SM BKN100=



000
FTUS45 KPUB 050538
TAFCOS
TAF
KCOS 050538Z 0506/0606 36008KT P6SM SCT110 BKN200
     FM051700 17009KT P6SM SCT110 BKN200
     FM052000 20012G22KT P6SM VCTS SCT080CB BKN120
     FM060200 35012G22KT P6SM SCT080 BKN100=



000
FTUS45 KPUB 050538
TAFALS
TAF
KALS 050538Z 0506/0606 VRB06KT P6SM SCT120 BKN200
     FM051200 VRB05KT P6SM BKN150
     FM051700 20009KT P6SM VCSH SCT080 BKN120
     FM051900 22012G22KT P6SM VCTS SCT070CB BKN100
     FM060300 21008KT P6SM SCT100 BKN150=



000
FTUS45 KPUB 050538
TAFCOS
TAF
KCOS 050538Z 0506/0606 36008KT P6SM SCT110 BKN200
     FM051700 17009KT P6SM SCT110 BKN200
     FM052000 20012G22KT P6SM VCTS SCT080CB BKN120
     FM060200 35012G22KT P6SM SCT080 BKN100=



000
FTUS45 KPUB 050538
TAFPUB
TAF
KPUB 050538Z 0506/0606 VRB06KT P6SM SCT120 BKN200
     FM050645 04010G20KT P6SM SCT120 BKN200
     FM050900 VRB06KT P6SM SCT120 BKN200
     FM051700 21010KT P6SM SCT120 BKN200
     FM052200 23012G22KT P6SM VCTS SCT100CB BKN140
     FM060300 29011KT P6SM BKN100=



000
FTUS45 KPUB 050538
TAFALS
TAF
KALS 050538Z 0506/0606 VRB06KT P6SM SCT120 BKN200
     FM051200 VRB05KT P6SM BKN150
     FM051700 20009KT P6SM VCSH SCT080 BKN120
     FM051900 22012G22KT P6SM VCTS SCT070CB BKN100
     FM060300 21008KT P6SM SCT100 BKN150=



000
FTUS45 KPUB 050335 AAB
TAFALS
TAF AMD
KALS 050335Z 0504/0524 14007KT P6SM SCT100 BKN200
     FM051700 20006KT P6SM SCT080 BKN150
     FM051900 21012KT P6SM VCTS SCT070CB BKN150=



000
FTUS45 KPUB 050335 AAB
TAFALS
TAF AMD
KALS 050335Z 0504/0524 14007KT P6SM SCT100 BKN200
     FM051700 20006KT P6SM SCT080 BKN150
     FM051900 21012KT P6SM VCTS SCT070CB BKN150=



000
FTUS45 KPUB 050335 AAB
TAFALS
TAF AMD
KALS 050335Z 0504/0524 14007KT P6SM SCT100 BKN200
     FM051700 20006KT P6SM SCT080 BKN150
     FM051900 21012KT P6SM VCTS SCT070CB BKN150=



000
FTUS45 KPUB 050334 AAB
TAFCOS
TAF AMD
KCOS 050334Z 0504/0524 36008KT P6SM SCT100 BKN200
     FM051700 16008KT P6SM FEW100 SCT200
     FM051900 20013KT P6SM VCTS SCT080CB BKN200=



000
FTUS45 KPUB 050334 AAB
TAFCOS
TAF AMD
KCOS 050334Z 0504/0524 36008KT P6SM SCT100 BKN200
     FM051700 16008KT P6SM FEW100 SCT200
     FM051900 20013KT P6SM VCTS SCT080CB BKN200=



000
FTUS45 KPUB 050334 AAB
TAFCOS
TAF AMD
KCOS 050334Z 0504/0524 36008KT P6SM SCT100 BKN200
     FM051700 16008KT P6SM FEW100 SCT200
     FM051900 20013KT P6SM VCTS SCT080CB BKN200=



000
FTUS45 KPUB 050221 AAA
TAFALS
TAF AMD
KALS 050221Z 0502/0524 24008KT P6SM VCTS FEW080CB BKN150
      TEMPO 0502/0504 09014G24KT
     FM050400 15005KT P6SM SCT100 BKN200
     FM051700 20006KT P6SM SCT080 BKN150
     FM051900 21012KT P6SM VCTS SCT070CB BKN150=



000
FTUS45 KPUB 050221 AAA
TAFALS
TAF AMD
KALS 050221Z 0502/0524 24008KT P6SM VCTS FEW080CB BKN150
      TEMPO 0502/0504 09014G24KT
     FM050400 15005KT P6SM SCT100 BKN200
     FM051700 20006KT P6SM SCT080 BKN150
     FM051900 21012KT P6SM VCTS SCT070CB BKN150=



000
FTUS45 KPUB 050220 AAA
TAFCOS
TAF AMD
KCOS 050220Z 0502/0524 17012KT P6SM VCTS FEW080CB SCT140 BKN200
      TEMPO 0502/0504 32015G25KT
     FM050400 33006KT P6SM SCT100 BKN200
     FM051700 16008KT P6SM FEW100 SCT200
     FM051900 20013KT P6SM VCTS SCT080CB BKN200=



000
FTUS45 KPUB 042320
TAFALS
TAF
KALS 042320Z 0500/0524 24008KT P6SM VCTS FEW080CB BKN150
     FM050400 15005KT P6SM SCT100 BKN200
     FM051700 20006KT P6SM SCT080 BKN150
     FM051900 21012KT P6SM VCTS SCT070CB BKN150=



000
FTUS45 KPUB 042320
TAFPUB
TAF
KPUB 042320Z 0500/0524 30007KT P6SM SCT110 BKN200
     FM050300 28005KT P6SM FEW110 BKN200
     FM051700 15005KT P6SM FEW200
     FM052000 18010KT P6SM VCTS FEW090CB BKN200=



000
FTUS45 KPUB 042320
TAFPUB
TAF
KPUB 042320Z 0500/0524 30007KT P6SM SCT110 BKN200
     FM050300 28005KT P6SM FEW110 BKN200
     FM051700 15005KT P6SM FEW200
     FM052000 18010KT P6SM VCTS FEW090CB BKN200=



000
FTUS45 KPUB 042320
TAFPUB
TAF
KPUB 042320Z 0500/0524 30007KT P6SM SCT110 BKN200
     FM050300 28005KT P6SM FEW110 BKN200
     FM051700 15005KT P6SM FEW200
     FM052000 18010KT P6SM VCTS FEW090CB BKN200=



000
FTUS45 KPUB 042320
TAFALS
TAF
KALS 042320Z 0500/0524 24008KT P6SM VCTS FEW080CB BKN150
     FM050400 15005KT P6SM SCT100 BKN200
     FM051700 20006KT P6SM SCT080 BKN150
     FM051900 21012KT P6SM VCTS SCT070CB BKN150=



000
FTUS45 KPUB 042320
TAFALS
TAF
KALS 042320Z 0500/0524 24008KT P6SM VCTS FEW080CB BKN150
     FM050400 15005KT P6SM SCT100 BKN200
     FM051700 20006KT P6SM SCT080 BKN150
     FM051900 21012KT P6SM VCTS SCT070CB BKN150=



000
FTUS45 KPUB 042320
TAFCOS
TAF
KCOS 042320Z 0500/0524 17012KT P6SM VCTS FEW080CB SCT140 BKN200
      TEMPO 0500/0504 32010KT
     FM050400 33006KT P6SM SCT100 BKN200
     FM051700 16008KT P6SM FEW100 SCT200
     FM051900 20013KT P6SM VCTS SCT080CB BKN200=



000
FTUS45 KPUB 042320
TAFCOS
TAF
KCOS 042320Z 0500/0524 17012KT P6SM VCTS FEW080CB SCT140 BKN200
      TEMPO 0500/0504 32010KT
     FM050400 33006KT P6SM SCT100 BKN200
     FM051700 16008KT P6SM FEW100 SCT200
     FM051900 20013KT P6SM VCTS SCT080CB BKN200=



000
FTUS45 KPUB 042320
TAFCOS
TAF
KCOS 042320Z 0500/0524 17012KT P6SM VCTS FEW080CB SCT140 BKN200
      TEMPO 0500/0504 32010KT
     FM050400 33006KT P6SM SCT100 BKN200
     FM051700 16008KT P6SM FEW100 SCT200
     FM051900 20013KT P6SM VCTS SCT080CB BKN200=



000
FTUS45 KPUB 042320
TAFALS
TAF
KALS 042320Z 0500/0524 24008KT P6SM VCTS FEW080CB BKN150
     FM050400 15005KT P6SM SCT100 BKN200
     FM051700 20006KT P6SM SCT080 BKN150
     FM051900 21012KT P6SM VCTS SCT070CB BKN150=



000
FTUS45 KPUB 042320
TAFPUB
TAF
KPUB 042320Z 0500/0524 30007KT P6SM SCT110 BKN200
     FM050300 28005KT P6SM FEW110 BKN200
     FM051700 15005KT P6SM FEW200
     FM052000 18010KT P6SM VCTS FEW090CB BKN200=



000
FTUS45 KPUB 042320
TAFCOS
TAF
KCOS 042320Z 0500/0524 17012KT P6SM VCTS FEW080CB SCT140 BKN200
      TEMPO 0500/0504 32010KT
     FM050400 33006KT P6SM SCT100 BKN200
     FM051700 16008KT P6SM FEW100 SCT200
     FM051900 20013KT P6SM VCTS SCT080CB BKN200=



000
FTUS45 KPUB 042148 AAC
TAFCOS
TAF AMD
KCOS 042148Z 0422/0518 25010KT P6SM VCTS FEW080CB BKN140 BKN180
     FM050300 33006KT P6SM SCT100 BKN200
     FM051700 16008KT P6SM FEW100 FEW200=



000
FTUS45 KPUB 042148 AAC
TAFCOS
TAF AMD
KCOS 042148Z 0422/0518 25010KT P6SM VCTS FEW080CB BKN140 BKN180
     FM050300 33006KT P6SM SCT100 BKN200
     FM051700 16008KT P6SM FEW100 FEW200=



000
FTUS45 KPUB 042143 AAD
TAFPUB
TAF AMD
KPUB 042143Z 0422/0518 36012KT P6SM SCT110 BKN150
     FM042300 30007KT P6SM SCT110 BKN200
     FM050300 28005KT P6SM SCT110 BKN200
     FM051700 15005KT P6SM FEW200=



000
FTUS45 KPUB 042143 AAD
TAFPUB
TAF AMD
KPUB 042143Z 0422/0518 36012KT P6SM SCT110 BKN150
     FM042300 30007KT P6SM SCT110 BKN200
     FM050300 28005KT P6SM SCT110 BKN200
     FM051700 15005KT P6SM FEW200=



000
FTUS45 KPUB 042125 AAC
TAFPUB
TAF AMD
KPUB 042125Z 0421/0518 36012KT P6SM SCT110 BKN150
     FM042200 15007KT P6SM SCT120 SCT200
     FM050300 28005KT P6SM SCT120 BKN200
     FM051700 15005KT P6SM FEW200=



000
FTUS45 KPUB 042125 AAC
TAFPUB
TAF AMD
KPUB 042125Z 0421/0518 36012KT P6SM SCT110 BKN150
     FM042200 15007KT P6SM SCT120 SCT200
     FM050300 28005KT P6SM SCT120 BKN200
     FM051700 15005KT P6SM FEW200=



000
FTUS45 KPUB 042101 AAB
TAFCOS
TAF AMD
KCOS 042101Z 0421/0518 25010KT P6SM VCTS FEW080CB BKN140 BKN180
     FM042200 15009KT P6SM VCTS SCT080CB BKN200
     FM050300 33006KT P6SM SCT100 BKN200
     FM051700 16008KT P6SM FEW100 FEW200=



000
FTUS45 KPUB 042101 AAB
TAFCOS
TAF AMD
KCOS 042101Z 0421/0518 25010KT P6SM VCTS FEW080CB BKN140 BKN180
     FM042200 15009KT P6SM VCTS SCT080CB BKN200
     FM050300 33006KT P6SM SCT100 BKN200
     FM051700 16008KT P6SM FEW100 FEW200=



000
FTUS45 KPUB 042006 AAA
TAFCOS
TAF AMD
KCOS 042006Z 0420/0518 26025G40KT P6SM -TSRA VCTS FEW060 SCT080CB
      BKN100
     FM042200 15009KT P6SM VCTS SCT080CB BKN200
     FM050300 33006KT P6SM SCT100 BKN200
     FM051700 16008KT P6SM FEW100 FEW200=



000
FTUS45 KPUB 042006 AAA
TAFCOS
TAF AMD
KCOS 042006Z 0420/0518 26025G40KT P6SM -TSRA VCTS FEW060 SCT080CB
      BKN100
     FM042200 15009KT P6SM VCTS SCT080CB BKN200
     FM050300 33006KT P6SM SCT100 BKN200
     FM051700 16008KT P6SM FEW100 FEW200=



000
FTUS45 KPUB 042006 AAA
TAFCOS
TAF AMD
KCOS 042006Z 0420/0518 26025G40KT P6SM -TSRA VCTS FEW060 SCT080CB
      BKN100
     FM042200 15009KT P6SM VCTS SCT080CB BKN200
     FM050300 33006KT P6SM SCT100 BKN200
     FM051700 16008KT P6SM FEW100 FEW200=



000
FTUS45 KPUB 042006 AAA
TAFCOS
TAF AMD
KCOS 042006Z 0420/0518 26025G40KT P6SM -TSRA VCTS FEW060 SCT080CB
      BKN100
     FM042200 15009KT P6SM VCTS SCT080CB BKN200
     FM050300 33006KT P6SM SCT100 BKN200
     FM051700 16008KT P6SM FEW100 FEW200=



000
FTUS45 KPUB 041804 AAA
TAFCOS
TAF AMD
KCOS 041804Z 0418/0518 15008KT P6SM VCTS SCT080CB SCT200
     FM042100 15009KT P6SM VCTS SCT080CB SCT200
     FM050300 33006KT P6SM SCT100 BKN200
     FM051700 16008KT P6SM FEW100 FEW200=



000
FTUS45 KPUB 041804 AAA
TAFCOS
TAF AMD
KCOS 041804Z 0418/0518 15008KT P6SM VCTS SCT080CB SCT200
     FM042100 15009KT P6SM VCTS SCT080CB SCT200
     FM050300 33006KT P6SM SCT100 BKN200
     FM051700 16008KT P6SM FEW100 FEW200=



000
FTUS45 KPUB 041720
TAFCOS
TAF
KCOS 041720Z 0418/0518 17008KT P6SM FEW090 FEW200
     FM042100 15009KT P6SM SCT100 SCT200
     FM050300 33006KT P6SM SCT100 BKN200
     FM051700 16008KT P6SM FEW100 FEW200=



000
FTUS45 KPUB 041720
TAFPUB
TAF
KPUB 041720Z 0418/0518 15004KT P6SM FEW200
     FM042200 15007KT P6SM SCT120 SCT200
     FM050300 28005KT P6SM SCT120 BKN200
     FM051700 15005KT P6SM FEW200=



000
FTUS45 KPUB 041720
TAFCOS
TAF
KCOS 041720Z 0418/0518 17008KT P6SM FEW090 FEW200
     FM042100 15009KT P6SM SCT100 SCT200
     FM050300 33006KT P6SM SCT100 BKN200
     FM051700 16008KT P6SM FEW100 FEW200=



000
FTUS45 KPUB 041720
TAFPUB
TAF
KPUB 041720Z 0418/0518 15004KT P6SM FEW200
     FM042200 15007KT P6SM SCT120 SCT200
     FM050300 28005KT P6SM SCT120 BKN200
     FM051700 15005KT P6SM FEW200=



000
FTUS45 KPUB 041720
TAFALS
TAF
KALS 041720Z 0418/0518 VRB05KT P6SM FEW200
     FM042000 24008KT P6SM VCTS SCT080CB BKN150
     FM050300 15005KT P6SM SCT100 SCT200=



000
FTUS45 KPUB 041720
TAFALS
TAF
KALS 041720Z 0418/0518 VRB05KT P6SM FEW200
     FM042000 24008KT P6SM VCTS SCT080CB BKN150
     FM050300 15005KT P6SM SCT100 SCT200=



000
FTUS45 KPUB 041120
TAFCOS
TAF
KCOS 041120Z 0412/0512 VRB06KT P6SM FEW120 SCT200
     FM041700 17008KT P6SM FEW080 SCT120
     FM042100 28012KT P6SM VCTS SCT080CB BKN120
     FM050300 12007KT P6SM SCT120 BKN150
     FM050700 36006KT P6SM FEW120 SCT200=



000
FTUS45 KPUB 041120
TAFPUB
TAF
KPUB 041120Z 0412/0512 VRB05KT P6SM FEW120 SCT200
     FM041800 14010KT P6SM FEW100 SCT150
     FM042200 34012KT P6SM VCTS SCT100CB BKN150
     FM050300 VRB06KT P6SM FEW100 SCT200=



000
FTUS45 KPUB 041120
TAFALS
TAF
KALS 041120Z 0412/0512 VRB05KT P6SM BKN200
     FM042000 23010KT P6SM VCTS SCT080CB BKN150
     FM042300 27012KT P6SM VCTS SCT080CB BKN100
     FM050300 VRB05KT P6SM BKN200=



000
FTUS45 KPUB 040524
TAFPUB
TAF
KPUB 040524Z 0406/0506 32006KT P6SM SCT200
     FM041500 14006KT P6SM FEW100 SCT200
     FM041800 15011KT P6SM FEW080 SCT200
     FM042000 17011KT P6SM VCTS SCT080CB BKN200
     FM050300 VRB06KT P6SM BKN200=



000
FTUS45 KPUB 040524
TAFALS
TAF
KALS 040524Z 0406/0506 VRB05KT P6SM BKN200
     FM041200 VRB05KT P6SM SCT200
     FM041800 22008KT P6SM VCTS SCT070CB SCT200
     FM042100 24013KT P6SM VCTS SCT070CB BKN200
     FM050300 VRB05KT P6SM BKN200=



000
FTUS45 KPUB 040524
TAFALS
TAF
KALS 040524Z 0406/0506 VRB05KT P6SM BKN200
     FM041200 VRB05KT P6SM SCT200
     FM041800 22008KT P6SM VCTS SCT070CB SCT200
     FM042100 24013KT P6SM VCTS SCT070CB BKN200
     FM050300 VRB05KT P6SM BKN200=



000
FTUS45 KPUB 040524
TAFCOS
TAF
KCOS 040524Z 0406/0506 03006KT P6SM SCT100 BKN200
     FM041400 15007KT P6SM SCT100 SCT200
     FM041700 16009KT P6SM FEW070 SCT200
     FM041900 17011KT P6SM VCTS SCT070CB BKN200
     FM050300 VRB06KT P6SM BKN200=



000
FTUS45 KPUB 040524
TAFCOS
TAF
KCOS 040524Z 0406/0506 03006KT P6SM SCT100 BKN200
     FM041400 15007KT P6SM SCT100 SCT200
     FM041700 16009KT P6SM FEW070 SCT200
     FM041900 17011KT P6SM VCTS SCT070CB BKN200
     FM050300 VRB06KT P6SM BKN200=



000
FTUS45 KPUB 040524
TAFPUB
TAF
KPUB 040524Z 0406/0506 32006KT P6SM SCT200
     FM041500 14006KT P6SM FEW100 SCT200
     FM041800 15011KT P6SM FEW080 SCT200
     FM042000 17011KT P6SM VCTS SCT080CB BKN200
     FM050300 VRB06KT P6SM BKN200=



000
FTUS45 KPUB 040212 AAB
TAFCOS
TAF AMD
KCOS 040212Z 0402/0424 12008KT P6SM VCTS SCT070CB BKN200
      TEMPO 0402/0404 VRB15G35KT 5SM -TSRA BKN050CB
     FM040500 06006KT P6SM SCT100 BKN200
     FM041400 15007KT P6SM SCT100 SCT200
     FM041700 16009KT P6SM FEW070 SCT200
     FM041900 17011KT P6SM VCTS SCT070CB BKN200=



000
FTUS45 KPUB 040212 AAB
TAFCOS
TAF AMD
KCOS 040212Z 0402/0424 12008KT P6SM VCTS SCT070CB BKN200
      TEMPO 0402/0404 VRB15G35KT 5SM -TSRA BKN050CB
     FM040500 06006KT P6SM SCT100 BKN200
     FM041400 15007KT P6SM SCT100 SCT200
     FM041700 16009KT P6SM FEW070 SCT200
     FM041900 17011KT P6SM VCTS SCT070CB BKN200=



000
FTUS45 KPUB 040212 AAB
TAFCOS
TAF AMD
KCOS 040212Z 0402/0424 12008KT P6SM VCTS SCT070CB BKN200
      TEMPO 0402/0404 VRB15G35KT 5SM -TSRA BKN050CB
     FM040500 06006KT P6SM SCT100 BKN200
     FM041400 15007KT P6SM SCT100 SCT200
     FM041700 16009KT P6SM FEW070 SCT200
     FM041900 17011KT P6SM VCTS SCT070CB BKN200=



000
FTUS45 KPUB 040212 AAB
TAFCOS
TAF AMD
KCOS 040212Z 0402/0424 12008KT P6SM VCTS SCT070CB BKN200
      TEMPO 0402/0404 VRB15G35KT 5SM -TSRA BKN050CB
     FM040500 06006KT P6SM SCT100 BKN200
     FM041400 15007KT P6SM SCT100 SCT200
     FM041700 16009KT P6SM FEW070 SCT200
     FM041900 17011KT P6SM VCTS SCT070CB BKN200=



000
FTUS45 KPUB 040210 AAB
TAFPUB
TAF AMD
KPUB 040210Z 0402/0424 13007KT P6SM VCTS SCT090CB BKN200
      TEMPO 0402/0404 VRB15G30KT 3SM -TSRA BKN070CB
     FM040600 09006KT P6SM SCT100 SCT200
     FM041500 14006KT P6SM SCT100 SCT200
     FM041800 15011KT P6SM FEW080 SCT200
     FM042000 17011KT P6SM VCTS SCT080CB BKN200=



000
FTUS45 KPUB 040134 AAA
TAFALS
TAF AMD
KALS 040134Z 0402/0424 22006KT P6SM VCTS SCT080CB BKN200
      TEMPO 0402/0403 VRB15G30KT -TSRA SCT060CB
     FM040400 14007KT P6SM BKN080 BKN200
     FM041200 VRB05KT P6SM SCT080 SCT200
     FM041700 22008KT P6SM VCTS SCT070CB SCT200=



000
FTUS45 KPUB 040134 AAA
TAFALS
TAF AMD
KALS 040134Z 0402/0424 22006KT P6SM VCTS SCT080CB BKN200
      TEMPO 0402/0403 VRB15G30KT -TSRA SCT060CB
     FM040400 14007KT P6SM BKN080 BKN200
     FM041200 VRB05KT P6SM SCT080 SCT200
     FM041700 22008KT P6SM VCTS SCT070CB SCT200=



000
FTUS45 KPUB 040132 AAA
TAFCOS
TAF AMD
KCOS 040132Z 0402/0424 12008KT P6SM VCTS SCT070CB BKN200
      TEMPO 0402/0404 VRB15G35KT -TSRA BKN060CB
     FM040500 06006KT P6SM SCT100 BKN200
     FM041400 15007KT P6SM SCT100 SCT200
     FM041700 16009KT P6SM FEW070 SCT200
     FM041900 17011KT P6SM VCTS SCT070CB BKN200=



000
FTUS45 KPUB 040129 AAA
TAFPUB
TAF AMD
KPUB 040129Z 0401/0424 13007KT P6SM VCTS SCT090CB BKN200
     FM040600 09006KT P6SM SCT100 SCT200
     FM041500 14006KT P6SM SCT100 SCT200
     FM041800 15011KT P6SM FEW080 SCT200
     FM042000 17011KT P6SM VCTS SCT080CB BKN200=



000
FTUS45 KPUB 040129 AAA
TAFPUB
TAF AMD
KPUB 040129Z 0401/0424 13007KT P6SM VCTS SCT090CB BKN200
     FM040600 09006KT P6SM SCT100 SCT200
     FM041500 14006KT P6SM SCT100 SCT200
     FM041800 15011KT P6SM FEW080 SCT200
     FM042000 17011KT P6SM VCTS SCT080CB BKN200=



000
FTUS45 KPUB 040129 AAA
TAFPUB
TAF AMD
KPUB 040129Z 0401/0424 13007KT P6SM VCTS SCT090CB BKN200
     FM040600 09006KT P6SM SCT100 SCT200
     FM041500 14006KT P6SM SCT100 SCT200
     FM041800 15011KT P6SM FEW080 SCT200
     FM042000 17011KT P6SM VCTS SCT080CB BKN200=



000
FTUS45 KPUB 040129 AAA
TAFPUB
TAF AMD
KPUB 040129Z 0401/0424 13007KT P6SM VCTS SCT090CB BKN200
     FM040600 09006KT P6SM SCT100 SCT200
     FM041500 14006KT P6SM SCT100 SCT200
     FM041800 15011KT P6SM FEW080 SCT200
     FM042000 17011KT P6SM VCTS SCT080CB BKN200=



000
FTUS45 KPUB 032323
TAFALS
TAF
KALS 032323Z 0400/0424 22006KT P6SM VCTS SCT080CB BKN200
     FM040400 14007KT P6SM BKN080 BKN200
     FM041200 VRB05KT P6SM SCT080 SCT200
     FM041700 22008KT P6SM VCTS SCT070CB SCT200=



000
FTUS45 KPUB 032323
TAFALS
TAF
KALS 032323Z 0400/0424 22006KT P6SM VCTS SCT080CB BKN200
     FM040400 14007KT P6SM BKN080 BKN200
     FM041200 VRB05KT P6SM SCT080 SCT200
     FM041700 22008KT P6SM VCTS SCT070CB SCT200=



000
FTUS45 KPUB 032323
TAFPUB
TAF
KPUB 032323Z 0400/0424 13007KT P6SM FEW100 BKN200
     FM040600 09006KT P6SM SCT100 SCT200
     FM041500 14006KT P6SM SCT100 SCT200
     FM041800 15011KT P6SM FEW080 SCT200
     FM042000 17011KT P6SM VCTS SCT080CB BKN200=



000
FTUS45 KPUB 032323
TAFPUB
TAF
KPUB 032323Z 0400/0424 13007KT P6SM FEW100 BKN200
     FM040600 09006KT P6SM SCT100 SCT200
     FM041500 14006KT P6SM SCT100 SCT200
     FM041800 15011KT P6SM FEW080 SCT200
     FM042000 17011KT P6SM VCTS SCT080CB BKN200=



000
FTUS45 KPUB 032323
TAFCOS
TAF
KCOS 032323Z 0400/0424 12008KT P6SM VCTS SCT070CB BKN200
     FM040500 06006KT P6SM SCT100 BKN200
     FM041400 15007KT P6SM SCT100 SCT200
     FM041700 16009KT P6SM FEW070 SCT200
     FM041900 17011KT P6SM VCTS SCT070CB BKN200=



000
FTUS45 KPUB 032323
TAFCOS
TAF
KCOS 032323Z 0400/0424 12008KT P6SM VCTS SCT070CB BKN200
     FM040500 06006KT P6SM SCT100 BKN200
     FM041400 15007KT P6SM SCT100 SCT200
     FM041700 16009KT P6SM FEW070 SCT200
     FM041900 17011KT P6SM VCTS SCT070CB BKN200=



    US Dept of Commerce
    National Oceanic and Atmospheric Administration
    National Weather Service
    1325 East West Highway
    Silver Spring, MD 20910
    Page Author: NWS Internet Services Team
Disclaimer
Information Quality
Credits
Glossary
Privacy Policy
Freedom of Information Act (FOIA)
About Us
Career Opportunities